• Join FlightAware (Why Join?)
  • Login
  • US Flag 
10:32PM EDT


 

Airport Tracker/Info


-or-


 

Live Flight TrackerFlight Track Log ✈ GJS3657 ✈ 19-Jun-2013 ✈ KALB - KORD

Flight Track Log - Related Links

Times and Time Zones

All times are in EDT time to prevent confusion due to time zone crossing. See the GJS3657 flight status page for this flight to view local times or setup timezone preferences in your user account.

Time Position Orientation Groundspeed Altitude Reporting Facility
EDT Latitude Longitude Course Direction KTS MPH feet Rate Location/Type
07:00AM 42.7672 -73.8061 345° North 140 161 1,300  Level Boston Center
07:00AM 42.8006 -73.8181 345° North 158 182 2,800 1,920 Climbing Boston Center
07:02AM 42.8581 -73.8958 315° West 217 250 5,600 2,400 Climbing Boston Center
07:03AM 42.9072 -73.9594 317° Northwest 242 278 8,600 2,460 Climbing Boston Center
07:04AM 42.9667 -74.0347 317° Northwest 247 284 10,600 2,040 Climbing Boston Center
07:05AM 43.0239 -74.1072 317° Northwest 294 338 12,700 1,980 Climbing Boston Center
07:06AM 43.0994 -74.2031 317° Northwest 324 373 14,600 1,980 Climbing Boston Center
07:07AM 43.1481 -74.2928 307° West 331 381 16,700 2,040 Climbing Boston Center
07:08AM 43.1500 -74.4350 271° West 325 374 18,700 1,860 Climbing Boston Center
07:09AM 43.1517 -74.5717 271° West 349 402 20,500 1,560 Climbing Boston Center
07:10AM 43.1553 -74.7086 272° West 355 409 22,200 1,500 Climbing Boston Center
07:11AM 43.1558 -74.8794 270° West 369 425 23,800 1,200 Climbing Boston Center
07:12AM 43.1572 -75.0075 271° West 375 432 24,600 960 Climbing Boston Center
07:13AM 43.1578 -75.1611 270° West 391 450 25,800 1,200 Climbing Boston Center
07:14AM 43.1583 -75.3150 270° West 401 461 27,000 1,200 Climbing Boston Center
07:15AM 43.1603 -75.4717 271° West 406 467 28,300 1,200 Climbing Boston Center
07:16AM 43.1606 -75.6225 270° West 406 467 29,500 1,200 Climbing Boston Center
07:17AM 43.1622 -75.7764 271° West 406 467 30,700 1,140 Climbing Boston Center
07:18AM 43.1619 -75.9272 270° West 400 460 31,800 960 Climbing Boston Center
07:20AM 43.1603 -76.2422 270° West 415 478 33,800 960 Climbing Cleveland Center
07:21AM 43.1617 -76.3875 271° West 410 472 34,800 960 Climbing Cleveland Center
07:22AM 43.1625 -76.5328 271° West 399 459 35,800 900 Climbing Cleveland Center
07:23AM 43.1614 -76.6781 269° West 394 453 36,600 840 Climbing Cleveland Center
07:24AM 43.1597 -76.8203 269° West 386 444 37,500 660 Climbing Cleveland Center
07:25AM 43.1603 -76.9628 270° West 381 438 38,000 240 Climbing Cleveland Center
07:26AM 43.1583 -77.1081 269° West 387 445 38,000  Level Cleveland Center
07:27AM 43.1564 -77.2561 269° West 387 445 38,000  Level Cleveland Center
07:28AM 43.1544 -77.4072 269° West 392 451 38,000  Level Cleveland Center
07:29AM 43.1544 -77.5608 270° West 404 465 38,000  Level Cleveland Center
07:30AM 43.1542 -77.7117 270° West 404 465 38,000  Level Cleveland Center
07:31AM 43.1494 -77.8656 268° West 404 465 38,000  Level Cleveland Center
07:32AM 43.1508 -78.0164 271° West 404 465 38,000  Level Cleveland Center
07:33AM 43.1458 -78.1675 267° West 404 465 38,000  Level Cleveland Center
07:34AM 43.1447 -78.3211 269° West 404 465 38,000  Level Cleveland Center
07:35AM 43.1392 -78.4750 267° West 404 465 38,000  Level Cleveland Center
07:36AM 43.1356 -78.6231 268° West 404 465 38,000  Level Cleveland Center
07:37AM 43.1319 -78.7797 268° West 404 465 38,000  Level Cleveland Center
07:38AM 43.1278 -78.9333 268° West 404 465 38,000  Level Cleveland Center
07:39AM 43.1236 -79.0842 268° West 404 465 38,000  Level Cleveland Center
07:40AM 43.1000 -79.2167 256° West 410 472 38,000  Level Toronto Center
07:41AM 43.1000 -79.3833 270° West 410 472 38,000  Level Toronto Center
07:42AM 43.1000 -79.5500 270° West 410 472 38,000  Level Toronto Center
07:43AM 43.0833 -79.7000 261° West 410 472 38,000  Level Toronto Center
07:44AM 43.0833 -79.8667 270° West 410 472 38,000  Level Toronto Center
07:45AM 43.0833 -80.0167 270° West 410 472 38,000  Level Toronto Center
07:46AM 43.0667 -80.1833 262° West 420 483 38,000  Level Toronto Center
07:47AM 43.0667 -80.3167 270° West 420 483 38,000  Level Toronto Center
07:48AM 43.0667 -80.4833 270° West 420 483 38,000  Level Toronto Center
07:49AM 43.0500 -80.6667 263° West 420 483 38,000  Level Toronto Center
07:50AM 43.0500 -80.8000 270° West 420 483 38,000  Level Toronto Center
07:51AM 43.0333 -80.9500 261° West 420 483 38,000  Level Toronto Center
07:52AM 43.0167 -81.1167 262° West 420 483 38,000  Level Toronto Center
07:53AM 43.0167 -81.2667 270° West 420 483 38,000  Level Toronto Center
07:54AM 43.0167 -81.4333 270° West 420 483 38,000  Level Toronto Center
07:55AM 43.0167 -81.6000 270° West 420 483 38,000  Level Toronto Center
07:56AM 43.0167 -81.7500 270° West 410 472 38,000  Level Toronto Center
07:57AM 43.0000 -81.9167 262° West 410 472 38,000  Level Toronto Center
07:58AM 43.0000 -82.0500 270° West 400 460 38,000  Level Toronto Center
07:59AM 43.0000 -82.2167 270° West 400 460 38,000  Level Toronto Center
08:00AM 43.0000 -82.3667 270° West 400 460 38,000  Level Toronto Center
08:01AM 43.0000 -82.5000 270° West 390 449 38,000 -360 Level Toronto Center
08:02AM 42.9833 -82.6667 262° West 400 460 37,300 -900 Descending Toronto Center
08:03AM 42.9833 -82.8167 270° West 410 472 36,200 -1,080 Descending Toronto Center
08:04AM 42.9833 -82.9833 270° West 420 483 35,200 -960 Descending Toronto Center
08:05AM 42.9833 -83.1500 270° West 420 483 34,300 -1,020 Descending Toronto Center
08:06AM 42.9667 -83.3000 261° West 420 483 33,200 -1,080 Descending Toronto Center
08:07AM 42.9667 -83.4667 270° West 420 483 32,200 -540 Descending Toronto Center
08:08AM 42.9689 -83.6761 271° West 419 482 32,000 -120 Descending Cleveland Center
08:09AM 42.9586 -83.8286 265° West 419 482 32,000  Level Cleveland Center
08:10AM 42.9439 -83.9756 262° West 408 470 32,000  Level Cleveland Center
08:11AM 42.9311 -84.1222 263° West 403 464 32,000  Level Cleveland Center
08:12AM 42.9161 -84.2689 262° West 403 464 32,000  Level Cleveland Center
08:13AM 42.9039 -84.3903 262° West 400 460 32,000  Level Chicago Center
08:14AM 42.8889 -84.5392 262° West 399 459 32,000  Level Chicago Center
08:15AM 42.8703 -84.7197 262° West 401 461 32,000  Level Chicago Center
08:16AM 42.8553 -84.8694 262° West 400 460 32,000  Level Chicago Center
08:17AM 42.8381 -85.0222 261° West 406 467 32,000  Level Chicago Center
08:19AM 42.8217 -85.1744 262° West 407 468 32,000  Level Chicago Center
08:20AM 42.8058 -85.3239 262° West 401 461 32,000 -960 Level Chicago Center
08:21AM 42.7892 -85.4731 261° West 398 458 30,100 -2,280 Descending Chicago Center
08:22AM 42.7603 -85.6408 257° West 380 437 27,300 -2,340 Descending Chicago Center
08:23AM 42.7353 -85.7761 256° West 369 425 25,300 -1,920 Descending Chicago Center
08:24AM 42.7117 -85.9103 257° West 364 419 23,400 -1,800 Descending Chicago Center
08:25AM 42.6867 -86.0453 256° West 367 422 21,700 -1,440 Descending Chicago Center
08:26AM 42.6622 -86.1847 257° West 377 434 20,500 -1,020 Descending Chicago Center
08:27AM 42.6367 -86.3194 256° West 371 427 19,600 -1,320 Descending Chicago Center
08:28AM 42.6117 -86.4558 256° West 371 427 17,800 -1,980 Descending Chicago Center
08:29AM 42.5817 -86.6119 255° West 360 414 15,600 -1,920 Descending Chicago Center
08:30AM 42.5583 -86.7364 256° West 344 396 13,800 -1,620 Descending Chicago Center
08:31AM 42.5253 -86.8547 249° West 338 389 12,300 -1,200 Descending Chicago Center
08:32AM 42.4969 -86.9578 250° West 297 342 11,400 -1,020 Descending Chicago Center
08:33AM 42.4697 -87.0575 250° West 286 329 10,200 -1,080 Descending Chicago Center
08:34AM 42.4419 -87.1558 249° West 284 327 9,200 -720 Descending Chicago Center
08:35AM 42.4067 -87.2731 248° West 281 323 8,800 -780 Descending Chicago Center
08:36AM 42.3736 -87.3669 245° Southwest 279 321 7,600 -900 Descending Chicago Center
08:37AM 42.3397 -87.4653 245° Southwest 271 312 7,000 -300 Descending Chicago Center
08:38AM 42.3056 -87.5503 241° Southwest 274 315 7,000 -300 Level Chicago Center
08:39AM 42.2481 -87.6153 220° Southwest 275 316 6,500 -840 Descending Chicago Center
08:40AM 42.1892 -87.6817 220° Southwest 276 318 5,300 -1,200 Descending Chicago Center
08:41AM 42.1269 -87.7533 221° Southwest 254 292 4,100 -1,200 Descending Chicago Center
08:42AM 42.0825 -87.8031 220° Southwest 221 254 2,900 -1,020 Descending Chicago Center
08:43AM 42.0433 -87.8453 219° Southwest 195 224 2,000 -960 Descending Chicago Center
08:44AM 42.0167 -87.8833 227° Southwest 144 166 1,100 -1,080 Descending Chicago TRACON
08:47AM 41.9817 -87.9067 North  Level Estimated